Time;durP1;ratioP1;P1;durP2;ratioP2;P2;SDS_P1;SDS_P2;PMS_P1;PMS_P2;Temp;Humidity;BMP_temperature;BMP_pressure;BME280_temperature;BME280_humidity;BME280_pressure;Samples;Min_cycle;Max_cycle;Signal;HPM_P1;HPM_P2
2023/10/21 00:01:46;;;;;;;30.08;4.30;;;23.40;53.80;;;;;;4821662;29;20050;-86
2023/10/21 00:04:14;;;;;;;18.48;3.95;;;23.40;54.00;;;;;;4821741;29;20410;-86
2023/10/21 00:06:42;;;;;;;23.35;3.90;;;23.30;54.30;;;;;;4822860;29;20046;-86
2023/10/21 00:09:09;;;;;;;22.30;3.50;;;23.30;54.10;;;;;;4805201;29;20042;-86
2023/10/21 00:11:36;;;;;;;19.75;3.15;;;23.20;54.40;;;;;;4822505;29;20065;-87
2023/10/21 00:14:03;;;;;;;21.88;3.72;;;23.20;54.40;;;;;;4806748;29;20069;-86
2023/10/21 00:16:30;;;;;;;22.65;3.30;;;23.20;54.10;;;;;;4807661;29;20055;-86
2023/10/21 00:18:57;;;;;;;27.20;3.80;;;23.30;54.20;;;;;;4822647;29;20469;-86
2023/10/21 00:21:24;;;;;;;21.30;3.47;;;23.30;54.10;;;;;;4823145;29;20047;-86
2023/10/21 00:23:51;;;;;;;23.38;3.30;;;23.20;54.40;;;;;;4822659;29;20455;-86
2023/10/21 00:26:18;;;;;;;20.63;3.70;;;23.20;54.50;;;;;;4822287;29;20050;-86
2023/10/21 00:28:51;;;;;;;21.63;3.25;;;23.20;54.70;;;;;;4822382;29;20053;-86
2023/10/21 00:31:18;;;;;;;20.42;3.70;;;23.20;54.70;;;;;;4822474;29;20486;-85
2023/10/21 00:33:46;;;;;;;26.50;3.30;;;23.30;54.60;;;;;;4807195;29;20088;-86
2023/10/21 00:36:13;;;;;;;16.60;2.97;;;23.30;54.90;;;;;;4822310;29;20074;-86
2023/10/21 00:38:40;;;;;;;19.58;3.05;;;23.30;55.00;;;;;;4814390;29;20153;-86
2023/10/21 00:41:07;;;;;;;17.55;3.88;;;23.30;55.20;;;;;;4821166;29;20394;-87
2023/10/21 00:43:39;;;;;;;22.05;3.50;;;23.30;55.20;;;;;;4806844;29;20046;-85
2023/10/21 00:46:16;;;;;;;20.83;4.00;;;23.30;55.20;;;;;;4807050;29;20054;-86
2023/10/21 00:48:44;;;;;;;21.30;3.85;;;23.30;55.20;;;;;;4821835;29;20130;-86
2023/10/21 00:51:12;;;;;;;26.15;3.45;;;23.30;55.40;;;;;;4806851;29;20043;-86
2023/10/21 00:53:39;;;;;;;28.55;3.55;;;23.20;54.90;;;;;;4822001;29;20107;-86
2023/10/21 00:56:08;;;;;;;21.50;3.33;;;23.30;55.20;;;;;;4822126;29;20050;-86
2023/10/21 00:58:35;;;;;;;22.67;4.57;;;23.30;54.90;;;;;;4804673;29;20514;-86
2023/10/21 01:01:08;;;;;;;32.53;5.38;;;23.30;54.90;;;;;;4805512;29;20070;-86
2023/10/21 01:03:37;;;;;;;22.50;3.42;;;23.30;54.80;;;;;;4807042;29;20049;-87
2023/10/21 01:06:04;;;;;;;20.25;3.17;;;23.30;54.50;;;;;;4805924;29;20043;-86
2023/10/21 01:08:39;;;;;;;23.80;3.65;;;23.30;54.90;;;;;;4822012;29;20074;-86
2023/10/21 01:11:07;;;;;;;25.50;4.00;;;23.20;54.90;;;;;;4818145;29;20780;-86
2023/10/21 01:13:34;;;;;;;21.23;3.75;;;23.20;55.10;;;;;;4806968;29;20043;-86
2023/10/21 01:16:01;;;;;;;22.85;3.50;;;23.20;55.00;;;;;;4806672;29;20413;-86
2023/10/21 01:18:33;;;;;;;28.40;3.53;;;23.20;54.40;;;;;;4821655;29;20386;-85
2023/10/21 01:21:02;;;;;;;14.85;2.90;;;23.20;54.20;;;;;;4821282;29;20406;-86
2023/10/21 01:23:30;;;;;;;24.03;3.57;;;23.20;53.70;;;;;;4813840;29;20125;-85
2023/10/21 01:25:59;;;;;;;30.40;3.85;;;23.20;53.50;;;;;;4820857;29;20464;-85
2023/10/21 01:28:26;;;;;;;23.52;3.15;;;23.30;53.70;;;;;;4813025;29;20039;-86
2023/10/21 01:30:53;;;;;;;24.27;3.20;;;23.30;53.40;;;;;;4821206;29;20047;-86
2023/10/21 01:33:20;;;;;;;23.10;3.42;;;23.30;53.70;;;;;;4806647;29;20046;-86
2023/10/21 01:35:48;;;;;;;24.20;3.73;;;23.40;53.50;;;;;;4821424;29;20050;-86
2023/10/21 01:38:15;;;;;;;22.50;3.38;;;23.40;53.40;;;;;;4821658;29;20142;-85
2023/10/21 01:40:43;;;;;;;23.00;3.80;;;23.40;53.70;;;;;;4821573;29;20054;-86
2023/10/21 01:43:10;;;;;;;24.33;3.88;;;23.40;54.10;;;;;;4820615;29;20043;-85
2023/10/21 01:45:38;;;;;;;24.98;3.55;;;23.30;53.70;;;;;;4821619;29;20056;-86
2023/10/21 01:48:05;;;;;;;23.33;3.40;;;23.40;53.90;;;;;;4821639;29;20050;-86
2023/10/21 01:50:33;;;;;;;20.60;3.17;;;23.40;54.00;;;;;;4806863;29;20053;-85
2023/10/21 01:53:00;;;;;;;22.35;3.80;;;23.40;53.90;;;;;;4821988;29;20072;-85
2023/10/21 01:55:27;;;;;;;19.80;3.55;;;23.40;53.70;;;;;;4808838;29;20054;-86
2023/10/21 01:57:54;;;;;;;16.25;2.95;;;23.40;53.40;;;;;;4816480;29;20038;-86
2023/10/21 02:00:22;;;;;;;20.60;3.20;;;23.40;53.30;;;;;;4808332;29;20059;-85
2023/10/21 02:02:54;;;;;;;14.73;3.13;;;23.40;53.20;;;;;;4809667;29;20070;-86
2023/10/21 02:05:23;;;;;;;18.40;2.95;;;23.40;53.50;;;;;;4824011;29;20046;-85
2023/10/21 02:07:51;;;;;;;18.35;3.33;;;23.40;53.30;;;;;;4821840;29;20071;-86
2023/10/21 02:10:18;;;;;;;19.00;2.90;;;23.30;53.80;;;;;;4823248;29;20145;-86
2023/10/21 02:12:46;;;;;;;27.30;3.70;;;23.30;53.60;;;;;;4822872;29;20521;-85
2023/10/21 02:15:16;;;;;;;20.75;3.80;;;23.30;53.70;;;;;;4824285;29;20046;-86
2023/10/21 02:17:47;;;;;;;22.90;4.13;;;23.20;53.40;;;;;;4820757;29;20043;-85
2023/10/21 02:20:14;;;;;;;23.88;4.38;;;23.30;53.50;;;;;;4806702;29;20576;-86
2023/10/21 02:22:43;;;;;;;19.67;3.25;;;23.30;53.60;;;;;;4808564;29;20490;-85
2023/10/21 02:25:15;;;;;;;24.77;3.63;;;23.20;53.90;;;;;;4808975;29;20042;-86
2023/10/21 02:27:42;;;;;;;23.13;3.45;;;23.20;53.90;;;;;;4807361;29;20054;-86
2023/10/21 02:30:16;;;;;;;21.90;4.18;;;23.20;54.20;;;;;;4824580;29;20583;-86
2023/10/21 02:32:44;;;;;;;21.65;3.60;;;23.20;54.20;;;;;;4823217;29;20050;-85
2023/10/21 02:35:13;;;;;;;19.13;3.15;;;23.20;54.40;;;;;;4823809;29;20059;-86
2023/10/21 02:37:40;;;;;;;20.23;3.57;;;23.30;54.20;;;;;;4824160;29;20493;-86
2023/10/21 02:40:08;;;;;;;20.85;3.45;;;23.30;54.10;;;;;;4823244;29;20050;-86
2023/10/21 02:42:37;;;;;;;19.00;3.58;;;23.20;54.60;;;;;;4808902;29;20080;-86
2023/10/21 02:45:05;;;;;;;18.17;3.22;;;23.10;55.20;;;;;;4824174;29;20050;-87
2023/10/21 02:47:34;;;;;;;19.67;3.72;;;23.00;55.10;;;;;;4824657;29;20049;-86
2023/10/21 02:50:01;;;;;;;18.93;3.87;;;22.90;55.20;;;;;;4808844;29;20518;-86
2023/10/21 02:52:28;;;;;;;22.25;3.20;;;22.80;56.10;;;;;;4809045;29;20053;-86
2023/10/21 02:54:55;;;;;;;22.20;3.20;;;22.70;56.10;;;;;;4824135;29;20054;-86
2023/10/21 02:57:22;;;;;;;19.38;3.70;;;22.60;56.70;;;;;;4809750;29;20054;-85
2023/10/21 02:59:49;;;;;;;21.75;3.75;;;22.60;57.10;;;;;;4824055;29;20081;-86
2023/10/21 03:02:16;;;;;;;25.57;3.80;;;22.50;57.30;;;;;;4816982;29;20039;-86
2023/10/21 03:04:43;;;;;;;23.70;4.05;;;22.50;57.20;;;;;;4823123;29;20061;-86
2023/10/21 03:07:11;;;;;;;28.17;4.32;;;22.50;57.60;;;;;;4823970;29;20046;-85
2023/10/21 03:09:38;;;;;;;14.27;2.78;;;22.50;57.10;;;;;;4824010;29;20409;-85
2023/10/21 03:12:05;;;;;;;19.08;3.03;;;22.60;57.10;;;;;;4808922;29;20058;-85
2023/10/21 03:14:33;;;;;;;22.77;3.20;;;22.60;57.00;;;;;;4821671;29;20528;-86
2023/10/21 03:17:00;;;;;;;22.67;3.30;;;22.70;57.30;;;;;;4824021;29;20502;-86
2023/10/21 03:19:27;;;;;;;18.55;3.05;;;22.60;57.50;;;;;;4823704;29;20050;-85
2023/10/21 03:21:56;;;;;;;15.13;3.28;;;22.60;57.60;;;;;;4823784;29;20053;-86
2023/10/21 03:24:24;;;;;;;16.25;3.08;;;22.60;57.60;;;;;;4838210;29;20046;-86
2023/10/21 03:26:51;;;;;;;14.57;3.13;;;22.50;57.50;;;;;;4823775;29;20046;-86
2023/10/21 03:29:18;;;;;;;18.35;3.33;;;22.60;57.50;;;;;;4808737;29;20053;-86
2023/10/21 03:31:45;;;;;;;25.02;3.42;;;22.50;57.70;;;;;;4823035;29;20046;-85
2023/10/21 03:34:13;;;;;;;16.83;3.42;;;22.50;58.00;;;;;;4823474;29;20058;-86
2023/10/21 03:36:40;;;;;;;18.20;3.25;;;22.50;58.10;;;;;;4807875;29;20069;-86
2023/10/21 03:39:07;;;;;;;18.27;3.57;;;22.50;58.90;;;;;;4822429;29;20111;-85
2023/10/21 03:41:34;;;;;;;18.45;3.60;;;22.30;59.20;;;;;;4824652;29;20045;-86
2023/10/21 03:44:03;;;;;;;26.88;3.70;;;22.10;59.10;;;;;;4814043;29;20380;-85
2023/10/21 03:46:31;;;;;;;22.73;3.70;;;22.10;59.10;;;;;;4807518;29;20066;-86
2023/10/21 03:48:58;;;;;;;17.75;3.90;;;22.10;59.00;;;;;;4808610;29;20099;-86
2023/10/21 03:51:25;;;;;;;25.57;4.07;;;22.20;59.30;;;;;;4808382;29;20081;-87
2023/10/21 03:53:52;;;;;;;22.02;3.55;;;22.10;58.70;;;;;;4809322;29;20157;-86
2023/10/21 03:56:19;;;;;;;24.95;3.83;;;22.20;58.80;;;;;;4822128;29;20561;-86
2023/10/21 03:58:46;;;;;;;16.85;2.80;;;22.20;58.40;;;;;;4808062;29;20052;-86
2023/10/21 04:01:13;;;;;;;24.10;3.30;;;22.20;58.50;;;;;;4823161;29;20071;-86
2023/10/21 04:03:40;;;;;;;15.70;3.40;;;22.10;58.40;;;;;;4808030;29;20103;-86
2023/10/21 04:06:12;;;;;;;16.65;2.70;;;22.10;58.80;;;;;;4821893;29;20046;-86
2023/10/21 04:08:39;;;;;;;21.75;3.20;;;22.10;58.60;;;;;;4823138;29;20049;-86
2023/10/21 04:11:06;;;;;;;19.05;3.42;;;22.10;58.70;;;;;;4807404;29;20095;-86
2023/10/21 04:13:33;;;;;;;17.38;2.67;;;22.00;58.90;;;;;;4806783;29;20053;-85
2023/10/21 04:16:00;;;;;;;18.43;2.53;;;21.90;58.70;;;;;;4808306;29;20047;-86
2023/10/21 04:18:27;;;;;;;16.13;2.85;;;21.90;59.00;;;;;;4822901;29;20550;-86
2023/10/21 04:20:55;;;;;;;17.25;2.67;;;21.90;58.80;;;;;;4807758;29;20074;-85
2023/10/21 04:23:22;;;;;;;15.80;2.85;;;22.00;58.90;;;;;;4822672;29;20082;-86
2023/10/21 04:25:49;;;;;;;16.20;2.78;;;22.00;59.00;;;;;;4821692;29;20125;-85
2023/10/21 04:28:16;;;;;;;16.13;3.10;;;21.90;59.50;;;;;;4807674;29;20107;-85
2023/10/21 04:30:45;;;;;;;21.52;3.85;;;21.70;59.70;;;;;;4822700;29;20046;-86
2023/10/21 04:33:12;;;;;;;19.17;3.53;;;21.70;59.50;;;;;;4821466;29;20050;-85
2023/10/21 04:35:39;;;;;;;16.35;2.55;;;21.80;59.50;;;;;;4822675;29;20081;-86
2023/10/21 04:38:09;;;;;;;16.38;2.72;;;21.60;59.90;;;;;;4823004;29;20054;-85
2023/10/21 04:40:37;;;;;;;15.53;2.83;;;21.60;60.00;;;;;;4807639;29;20050;-86
2023/10/21 04:43:04;;;;;;;12.05;2.45;;;21.60;60.30;;;;;;4807558;29;20050;-85
2023/10/21 04:45:31;;;;;;;15.20;2.92;;;21.70;60.10;;;;;;4822665;29;20054;-86
2023/10/21 04:47:58;;;;;;;15.73;2.85;;;21.70;60.20;;;;;;4806445;29;20046;-86
2023/10/21 04:50:26;;;;;;;15.07;2.75;;;21.70;60.40;;;;;;4823805;29;20121;-85
2023/10/21 04:52:54;;;;;;;13.30;2.63;;;21.60;60.60;;;;;;4807408;29;20058;-85
2023/10/21 04:55:21;;;;;;;17.35;3.22;;;21.60;60.70;;;;;;4822449;29;20505;-86
2023/10/21 04:57:48;;;;;;;14.70;2.80;;;21.60;61.00;;;;;;4824347;29;20047;-85
2023/10/21 05:00:15;;;;;;;17.92;2.80;;;21.60;61.50;;;;;;4822706;29;20141;-86
2023/10/21 05:02:43;;;;;;;17.02;2.17;;;21.60;61.00;;;;;;4807130;29;20039;-86
2023/10/21 05:05:12;;;;;;;16.67;2.67;;;21.50;61.00;;;;;;4822502;29;20086;-85
2023/10/21 05:07:39;;;;;;;14.10;2.38;;;21.40;59.40;;;;;;4822599;29;20054;-86
2023/10/21 05:10:07;;;;;;;12.70;2.85;;;21.50;60.10;;;;;;4807336;29;20405;-85
2023/10/21 05:12:34;;;;;;;14.93;2.53;;;21.50;60.10;;;;;;4823285;29;20054;-87
2023/10/21 05:15:02;;;;;;;12.20;2.30;;;21.50;59.70;;;;;;4823400;29;20061;-86
2023/10/21 05:17:29;;;;;;;11.63;2.20;;;21.50;60.00;;;;;;4818053;29;20134;-86
2023/10/21 05:19:57;;;;;;;15.48;2.80;;;21.40;59.70;;;;;;4822315;29;20046;-85
2023/10/21 05:22:24;;;;;;;12.32;1.88;;;21.40;59.70;;;;;;4807421;29;20067;-86
2023/10/21 05:24:51;;;;;;;12.15;2.28;;;21.40;60.10;;;;;;4822443;29;20379;-85
2023/10/21 05:27:18;;;;;;;11.82;2.30;;;21.40;60.00;;;;;;4824383;29;20046;-86
2023/10/21 05:29:45;;;;;;;17.80;2.40;;;21.30;60.20;;;;;;4816882;29;20053;-86
2023/10/21 05:32:12;;;;;;;14.93;2.42;;;21.30;60.50;;;;;;4826462;29;20046;-87
2023/10/21 05:34:39;;;;;;;11.18;2.15;;;21.20;60.60;;;;;;4825876;29;20058;-88
2023/10/21 05:37:07;;;;;;;13.38;1.98;;;21.20;60.60;;;;;;4810640;29;20058;-86
2023/10/21 05:39:34;;;;;;;13.13;2.10;;;21.10;59.90;;;;;;4825499;29;20050;-87
2023/10/21 05:42:01;;;;;;;18.47;2.27;;;21.10;59.70;;;;;;4825510;29;20054;-87
2023/10/21 05:44:28;;;;;;;10.25;1.95;;;21.10;59.40;;;;;;4825318;29;20042;-87
2023/10/21 05:47:14;;;;;;;12.68;2.00;;;21.10;59.40;;;;;;4812339;29;20042;-87
2023/10/21 05:49:41;;;;;;;11.73;2.05;;;21.10;59.50;;;;;;4825419;29;20520;-88
2023/10/21 05:52:08;;;;;;;10.88;1.90;;;21.10;59.40;;;;;;4825164;29;20478;-87
2023/10/21 05:54:35;;;;;;;11.27;1.70;;;21.00;59.50;;;;;;4815618;29;20554;-86
2023/10/21 05:57:02;;;;;;;9.65;1.80;;;21.00;59.20;;;;;;4824871;29;20046;-86
2023/10/21 05:59:30;;;;;;;12.15;2.10;;;21.00;58.90;;;;;;4809799;29;20086;-85
2023/10/21 06:01:57;;;;;;;8.95;1.63;;;21.00;58.70;;;;;;4824812;29;20038;-86
2023/10/21 06:04:24;;;;;;;10.20;1.85;;;21.00;58.50;;;;;;4809459;29;20137;-86
2023/10/21 06:06:54;;;;;;;10.40;1.40;;;21.00;58.60;;;;;;4825027;29;20458;-86
2023/10/21 06:09:23;;;;;;;10.85;1.27;;;20.90;58.10;;;;;;4814472;29;20046;-87
2023/10/21 06:11:51;;;;;;;11.75;1.48;;;20.90;58.00;;;;;;4809747;29;20082;-86
2023/10/21 06:14:18;;;;;;;9.00;1.67;;;20.90;58.00;;;;;;4818544;29;20526;-86
2023/10/21 06:16:45;;;;;;;7.38;1.60;;;20.90;58.00;;;;;;4824638;29;20042;-87
2023/10/21 06:19:12;;;;;;;9.97;1.47;;;20.90;58.00;;;;;;4824381;29;20107;-86
2023/10/21 06:21:40;;;;;;;10.40;1.40;;;21.00;58.00;;;;;;4822588;29;20050;-86
2023/10/21 06:24:08;;;;;;;11.18;1.80;;;21.00;58.00;;;;;;4809049;29;20054;-86
2023/10/21 06:26:35;;;;;;;13.02;1.88;;;21.10;57.90;;;;;;4816653;29;20042;-87
2023/10/21 06:29:02;;;;;;;7.28;1.35;;;21.00;57.80;;;;;;4824292;29;20578;-86
2023/10/21 06:31:31;;;;;;;9.20;1.23;;;21.00;57.70;;;;;;4809516;29;20042;-86
2023/10/21 06:33:59;;;;;;;11.20;1.35;;;21.00;57.90;;;;;;4823870;29;20095;-86
2023/10/21 06:36:27;;;;;;;11.85;0.90;;;20.90;57.70;;;;;;4824271;29;20142;-86
2023/10/21 06:38:54;;;;;;;9.85;1.10;;;20.80;57.20;;;;;;4823210;29;20046;-86
2023/10/21 06:41:22;;;;;;;9.52;1.02;;;20.80;57.80;;;;;;4824625;29;20049;-88
2023/10/21 06:43:51;;;;;;;7.27;0.90;;;20.80;58.10;;;;;;4825082;29;20050;-87
2023/10/21 06:46:19;;;;;;;7.88;1.00;;;20.80;57.80;;;;;;4824649;29;20046;-88
2023/10/21 06:48:46;;;;;;;7.35;1.23;;;20.80;58.20;;;;;;4824566;29;20052;-87
2023/10/21 06:51:13;;;;;;;8.82;1.20;;;20.80;58.10;;;;;;4825533;29;20156;-89
2023/10/21 06:53:40;;;;;;;9.07;1.50;;;20.80;58.30;;;;;;4823464;29;20103;-89
2023/10/21 06:56:12;;;;;;;6.67;0.90;;;20.70;58.40;;;;;;4825434;29;20052;-89
2023/10/21 06:58:40;;;;;;;10.75;1.73;;;20.80;58.40;;;;;;4824863;29;20050;-90
2023/10/21 07:01:08;;;;;;;11.65;1.35;;;20.80;58.50;;;;;;4816966;29;20069;-88
2023/10/21 07:03:35;;;;;;;9.63;1.00;;;20.80;58.10;;;;;;4810533;29;20050;-90
2023/10/21 07:06:02;;;;;;;9.38;1.20;;;20.90;58.50;;;;;;4822571;29;20042;-89
2023/10/21 07:08:31;;;;;;;5.30;0.90;;;20.90;58.30;;;;;;4810445;29;20051;-89
2023/10/21 07:10:58;;;;;;;12.23;1.20;;;20.90;58.50;;;;;;4808526;29;20456;-89
2023/10/21 07:13:25;;;;;;;8.90;1.05;;;20.90;58.90;;;;;;4810616;29;20050;-89
2023/10/21 07:15:52;;;;;;;8.02;1.13;;;20.90;58.40;;;;;;4825093;29;20099;-89
2023/10/21 07:18:19;;;;;;;9.20;1.00;;;21.00;58.90;;;;;;4824562;29;20050;-88
2023/10/21 07:20:50;;;;;;;7.83;0.93;;;21.00;58.60;;;;;;4824964;29;20454;-87
2023/10/21 07:23:17;;;;;;;6.03;1.10;;;21.00;58.30;;;;;;4824250;29;20049;-86
2023/10/21 07:25:44;;;;;;;11.20;1.52;;;21.00;58.10;;;;;;4823011;29;20095;-89
2023/10/21 07:28:11;;;;;;;12.43;1.48;;;21.00;58.20;;;;;;4825505;29;20054;-88
2023/10/21 07:30:39;;;;;;;9.70;1.10;;;21.10;59.10;;;;;;4810160;29;20076;-90
2023/10/21 07:33:06;;;;;;;9.20;1.20;;;21.10;58.80;;;;;;4825565;29;20517;-87
2023/10/21 07:35:33;;;;;;;13.68;1.98;;;21.10;59.70;;;;;;4822842;29;20545;-88
2023/10/21 07:38:03;;;;;;;8.15;2.20;;;21.10;59.80;;;;;;4823811;29;20077;-86
2023/10/21 07:40:30;;;;;;;12.52;3.58;;;21.00;58.70;;;;;;4808686;29;20042;-87
2023/10/21 07:42:58;;;;;;;11.25;3.35;;;21.10;58.00;;;;;;4807218;29;20050;-87
2023/10/21 07:45:25;;;;;;;8.10;1.87;;;20.90;57.80;;;;;;4808527;29;20689;-87
2023/10/21 07:47:53;;;;;;;7.80;1.85;;;20.80;57.70;;;;;;4823625;29;20049;-86
2023/10/21 07:50:20;;;;;;;6.68;1.40;;;20.70;57.60;;;;;;4806720;29;20046;-85
2023/10/21 07:52:47;;;;;;;6.38;1.35;;;20.70;57.90;;;;;;4822302;29;20069;-87
2023/10/21 07:55:14;;;;;;;6.07;1.77;;;20.70;57.90;;;;;;4822348;29;20046;-87
2023/10/21 07:57:41;;;;;;;6.40;1.70;;;20.80;57.70;;;;;;4823677;29;20057;-88
2023/10/21 08:00:13;;;;;;;6.47;1.42;;;20.80;57.80;;;;;;4817743;29;20054;-87
2023/10/21 08:02:41;;;;;;;6.13;1.60;;;20.80;57.60;;;;;;4811362;29;20097;-87
2023/10/21 08:05:09;;;;;;;4.93;1.60;;;20.80;58.10;;;;;;4808268;29;20406;-91
2023/10/21 08:07:37;;;;;;;6.65;1.60;;;20.90;58.00;;;;;;4823757;29;20047;-89
2023/10/21 08:10:05;;;;;;;3.27;1.30;;;20.80;58.10;;;;;;4808994;29;20050;-89
2023/10/21 08:12:35;;;;;;;7.13;1.45;;;20.90;58.30;;;;;;4809569;29;20046;-92
2023/10/21 08:15:04;;;;;;;6.78;1.10;;;20.80;58.00;;;;;;4823701;29;20524;-90
2023/10/21 08:17:31;;;;;;;8.38;1.70;;;20.70;57.70;;;;;;4809836;29;20532;-89
2023/10/21 08:19:59;;;;;;;9.32;2.03;;;20.80;58.40;;;;;;4825002;29;20057;-89
2023/10/21 08:22:27;;;;;;;7.77;1.83;;;20.80;58.30;;;;;;4819453;29;20413;-88
2023/10/21 08:24:54;;;;;;;5.13;0.90;;;20.80;58.70;;;;;;4809618;29;20129;-90
2023/10/21 08:27:23;;;;;;;5.22;1.25;;;20.70;56.80;;;;;;4824867;29;20057;-89
2023/10/21 08:29:50;;;;;;;6.97;1.45;;;20.60;57.50;;;;;;4824927;29;20042;-89
2023/10/21 08:32:17;;;;;;;6.32;1.50;;;20.80;58.40;;;;;;4822903;29;20047;-87
2023/10/21 08:34:44;;;;;;;3.60;1.20;;;20.90;58.20;;;;;;4824971;29;20450;-88
2023/10/21 08:37:11;;;;;;;4.22;1.27;;;20.90;58.30;;;;;;4818523;29;20061;-88
2023/10/21 08:39:39;;;;;;;5.07;1.55;;;21.10;58.00;;;;;;4824423;29;20062;-88
2023/10/21 08:42:06;;;;;;;3.72;1.00;;;21.10;58.00;;;;;;4824704;29;20058;-88
2023/10/21 08:44:36;;;;;;;6.97;1.40;;;21.10;58.30;;;;;;4824395;29;20046;-88
2023/10/21 08:47:05;;;;;;;5.70;1.20;;;21.10;57.90;;;;;;4825069;29;20046;-90
2023/10/21 08:49:33;;;;;;;5.10;1.30;;;21.10;57.60;;;;;;4809267;29;20145;-88
2023/10/21 08:52:02;;;;;;;7.60;1.50;;;21.20;58.00;;;;;;4809653;29;20073;-88
2023/10/21 08:54:32;;;;;;;3.60;1.20;;;21.20;57.50;;;;;;4809036;29;20208;-88
2023/10/21 08:56:59;;;;;;;6.93;1.52;;;21.30;57.90;;;;;;4824496;29;20422;-89
2023/10/21 08:59:27;;;;;;;4.60;1.47;;;21.40;57.60;;;;;;4824094;29;20061;-88
2023/10/21 09:01:54;;;;;;;4.45;1.75;;;21.50;58.50;;;;;;4808990;29;20513;-88
2023/10/21 09:04:22;;;;;;;7.65;1.13;;;21.60;58.90;;;;;;4827760;29;20068;-88
2023/10/21 09:06:54;;;;;;;5.07;1.48;;;21.50;57.00;;;;;;4827871;29;20061;-88
2023/10/21 09:09:29;;;;;;;10.95;1.50;;;21.40;57.40;;;;;;4806034;29;20061;-90
2023/10/21 09:12:17;;;;;;;10.33;1.43;;;21.30;57.70;;;;;;4828419;29;20047;-91
2023/10/21 09:14:58;;;;;;;7.47;1.30;;;21.30;58.40;;;;;;4827487;29;20065;-92
2023/10/21 09:17:38;;;;;;;4.43;1.55;;;21.20;58.30;;;;;;4828880;29;20051;-93
2023/10/21 09:20:16;;;;;;;6.63;1.50;;;21.30;58.60;;;;;;4826714;29;20061;-90
2023/10/21 09:22:46;;;;;;;6.72;1.90;;;21.20;58.80;;;;;;4828082;29;20047;-90
2023/10/21 09:25:18;;;;;;;6.87;1.67;;;21.30;58.20;;;;;;4813226;29;20056;-89
2023/10/21 09:27:54;;;;;;;7.28;1.40;;;21.40;58.60;;;;;;4810779;29;20074;-91
2023/10/21 09:30:57;;;;;;;5.90;1.40;;;21.60;59.00;;;;;;4824838;29;20054;-87
2023/10/21 09:33:26;;;;;;;6.30;1.83;;;21.60;58.50;;;;;;4827418;29;20059;-88
2023/10/21 09:36:04;;;;;;;9.68;1.75;;;21.70;57.90;;;;;;4819246;29;20046;-89
2023/10/21 09:38:51;;;;;;;5.83;1.63;;;21.80;58.40;;;;;;4825575;29;20046;-89
2023/10/21 09:41:41;;;;;;;7.93;1.90;;;21.90;57.70;;;;;;4812659;29;20062;-89
2023/10/21 09:44:10;;;;;;;6.90;2.33;;;21.90;58.70;;;;;;4806017;29;20050;-89
2023/10/21 09:46:39;;;;;;;4.82;1.85;;;22.00;58.10;;;;;;4812784;29;20095;-89
2023/10/21 09:49:08;;;;;;;8.05;1.88;;;22.10;58.50;;;;;;4827328;29;20046;-89
2023/10/21 09:51:40;;;;;;;5.90;2.00;;;22.10;57.70;;;;;;4812403;29;20057;-88
2023/10/21 09:54:13;;;;;;;8.85;1.90;;;22.10;57.80;;;;;;4827526;29;20050;-89
2023/10/21 09:56:42;;;;;;;7.78;2.15;;;22.10;57.60;;;;;;4827047;29;20106;-88
2023/10/21 09:59:10;;;;;;;5.40;1.73;;;22.10;57.90;;;;;;4828133;29;20050;-88
2023/10/21 10:01:39;;;;;;;7.25;2.13;;;22.10;57.80;;;;;;4827377;29;20049;-88
2023/10/21 10:04:09;;;;;;;9.90;2.10;;;22.10;57.90;;;;;;4826561;29;20141;-88
2023/10/21 10:06:43;;;;;;;6.47;2.08;;;22.10;58.50;;;;;;4811883;29;20145;-89
2023/10/21 10:09:12;;;;;;;6.82;2.05;;;22.20;58.10;;;;;;4826300;29;20074;-88
2023/10/21 10:11:43;;;;;;;5.28;1.75;;;22.30;57.70;;;;;;4804840;29;20058;-89
2023/10/21 10:14:11;;;;;;;6.30;1.88;;;22.40;57.30;;;;;;4826252;29;20050;-87
2023/10/21 10:16:42;;;;;;;10.00;2.10;;;22.40;57.50;;;;;;4830774;29;20095;-88
2023/10/21 10:19:09;;;;;;;7.50;2.15;;;22.60;58.00;;;;;;4825991;29;20065;-87
2023/10/21 10:21:36;;;;;;;7.43;1.80;;;22.60;57.70;;;;;;4811152;29;20058;-88
2023/10/21 10:24:07;;;;;;;9.23;2.65;;;22.60;57.50;;;;;;4826588;29;20409;-88
2023/10/21 10:26:39;;;;;;;5.78;1.90;;;22.70;57.50;;;;;;4826729;29;20383;-88
2023/10/21 10:29:27;;;;;;;8.40;1.90;;;22.70;57.90;;;;;;4811525;29;20133;-88
2023/10/21 10:32:17;;;;;;;8.75;2.20;;;22.60;58.70;;;;;;4825965;29;20070;-88
2023/10/21 10:34:52;;;;;;;8.50;1.80;;;22.30;57.00;;;;;;4826056;29;20056;-88
2023/10/21 10:37:36;;;;;;;7.70;1.90;;;22.20;58.10;;;;;;4811342;29;20046;-88
2023/10/21 10:40:18;;;;;;;8.32;2.28;;;22.10;57.90;;;;;;4826143;29;20129;-89
2023/10/21 10:42:45;;;;;;;6.27;1.80;;;22.00;57.70;;;;;;4826879;29;20038;-89
2023/10/21 10:45:12;;;;;;;3.63;1.42;;;22.00;57.70;;;;;;4811086;29;20055;-89
2023/10/21 10:47:40;;;;;;;9.05;2.17;;;22.00;58.60;;;;;;4826773;29;20062;-89
2023/10/21 10:50:16;;;;;;;8.55;2.15;;;22.00;58.80;;;;;;4826146;29;20057;-88
2023/10/21 10:52:46;;;;;;;5.55;1.95;;;21.90;57.90;;;;;;4826217;29;20051;-88
2023/10/21 10:55:14;;;;;;;5.80;1.70;;;22.00;58.40;;;;;;4811429;29;20046;-89
2023/10/21 10:57:43;;;;;;;7.22;1.60;;;22.00;58.80;;;;;;4807228;29;20134;-88
2023/10/21 11:00:13;;;;;;;6.32;2.03;;;22.10;59.10;;;;;;4800351;29;20051;-87
2023/10/21 11:02:44;;;;;;;7.43;1.58;;;22.10;58.70;;;;;;4808120;29;20444;-87
2023/10/21 11:05:20;;;;;;;9.52;1.63;;;22.20;58.10;;;;;;4825368;29;20387;-87
2023/10/21 11:07:49;;;;;;;5.43;1.70;;;22.30;58.20;;;;;;4810252;29;20099;-87
2023/10/21 11:10:20;;;;;;;4.43;1.58;;;22.40;57.60;;;;;;4810351;29;20518;-87
2023/10/21 11:12:48;;;;;;;6.40;2.10;;;22.50;57.60;;;;;;4823662;29;20501;-87
2023/10/21 11:15:16;;;;;;;7.75;2.10;;;22.60;58.70;;;;;;4809772;29;20055;-86
2023/10/21 11:17:48;;;;;;;9.10;1.90;;;22.60;57.70;;;;;;4824469;29;20050;-87
2023/10/21 11:20:15;;;;;;;6.50;2.10;;;22.80;57.30;;;;;;4806899;29;20123;-86
2023/10/21 11:22:42;;;;;;;7.80;2.00;;;22.80;58.10;;;;;;4809160;29;20132;-87
2023/10/21 11:25:09;;;;;;;6.22;2.30;;;22.80;57.70;;;;;;4821760;29;20077;-87
2023/10/21 11:27:40;;;;;;;6.57;1.73;;;22.80;57.20;;;;;;4809745;29;20050;-87
2023/10/21 11:30:08;;;;;;;6.70;2.05;;;22.90;57.30;;;;;;4816847;29;20074;-86
2023/10/21 11:32:39;;;;;;;7.23;2.10;;;23.00;57.50;;;;;;4807073;29;20090;-88
2023/10/21 11:35:13;;;;;;;11.05;2.38;;;23.00;56.60;;;;;;4821007;29;20106;-89
2023/10/21 11:37:42;;;;;;;7.38;1.90;;;22.80;57.20;;;;;;4825659;29;20133;-87
2023/10/21 11:40:11;;;;;;;6.53;1.80;;;22.90;56.30;;;;;;4824604;29;20593;-87
2023/10/21 11:42:38;;;;;;;5.10;1.80;;;22.80;56.40;;;;;;4809724;29;20592;-87
2023/10/21 11:45:07;;;;;;;9.53;2.13;;;22.90;56.90;;;;;;4824761;29;20050;-87
2023/10/21 11:47:35;;;;;;;8.38;2.00;;;23.00;56.40;;;;;;4824635;29;20509;-88
2023/10/21 11:50:03;;;;;;;8.23;2.10;;;23.10;56.50;;;;;;4824606;29;20052;-87
2023/10/21 11:52:32;;;;;;;6.40;1.92;;;23.10;56.60;;;;;;4824295;29;20057;-87
2023/10/21 12:38:24;;;;;;;7.30;1.77;;;23.50;53.10;;;;;;4822549;29;20531;-88
2023/10/21 12:41:15;;;;;;;8.60;2.17;;;23.50;53.20;;;;;;4811480;29;20137;-86
2023/10/21 12:43:48;;;;;;;6.00;2.13;;;23.60;52.60;;;;;;4824203;29;20079;-88
2023/10/21 12:46:18;;;;;;;7.95;2.13;;;23.60;52.60;;;;;;4824233;29;20047;-87
2023/10/21 12:48:48;;;;;;;5.95;2.08;;;23.70;52.10;;;;;;4822738;29;20050;-88
2023/10/21 12:51:16;;;;;;;10.10;2.17;;;23.70;52.60;;;;;;4824725;29;20046;-91
2023/10/21 12:53:44;;;;;;;7.38;1.85;;;23.80;53.10;;;;;;4824162;29;20097;-87
2023/10/21 12:56:13;;;;;;;9.10;2.33;;;23.80;54.50;;;;;;4813899;29;20517;-87
2023/10/21 12:58:43;;;;;;;7.45;2.20;;;23.80;52.60;;;;;;4820788;29;20043;-87
2023/10/21 13:01:12;;;;;;;6.82;1.70;;;23.90;52.80;;;;;;4823499;29;20497;-87
2023/10/21 13:03:40;;;;;;;8.47;2.10;;;23.90;53.10;;;;;;4812450;29;20383;-88
2023/10/21 13:06:12;;;;;;;7.78;2.58;;;23.90;53.50;;;;;;4818986;29;20047;-87
2023/10/21 13:08:39;;;;;;;7.22;1.98;;;23.80;52.50;;;;;;4824128;29;20482;-87
2023/10/21 13:11:06;;;;;;;9.98;2.15;;;23.80;53.20;;;;;;4823515;29;20066;-88
2023/10/21 13:13:36;;;;;;;8.13;2.17;;;23.90;53.30;;;;;;4823629;29;20050;-86
2023/10/21 13:16:04;;;;;;;8.30;2.37;;;23.90;54.00;;;;;;4823166;29;20050;-87
2023/10/21 13:18:33;;;;;;;7.70;2.33;;;23.70;53.90;;;;;;4823315;29;20133;-86
2023/10/21 13:21:00;;;;;;;8.35;2.10;;;23.70;54.60;;;;;;4819587;29;20050;-87
2023/10/21 13:23:28;;;;;;;9.98;2.70;;;23.70;54.30;;;;;;4823435;29;20038;-86
2023/10/21 13:25:55;;;;;;;9.95;2.67;;;23.80;54.40;;;;;;4822841;29;20052;-87
2023/10/21 13:28:22;;;;;;;7.67;2.10;;;23.70;55.40;;;;;;4823469;29;20502;-86
2023/10/21 13:30:49;;;;;;;7.63;2.15;;;23.60;56.00;;;;;;4806800;29;20065;-85
2023/10/21 13:33:17;;;;;;;10.05;2.35;;;23.60;55.50;;;;;;4819136;29;20061;-86